createdAt,value
2022-10-19T00:01:05.879Z,101808.38
2022-10-19T00:03:33.668Z,101809.06
2022-10-19T00:06:00.835Z,101808.03
2022-10-19T00:08:27.755Z,101814.13
2022-10-19T00:10:54.487Z,101812.97
2022-10-19T00:13:21.367Z,101812.00
2022-10-19T00:15:48.091Z,101796.44
2022-10-19T00:18:14.848Z,101800.59
2022-10-19T00:20:41.559Z,101807.81
2022-10-19T00:23:08.491Z,101801.38
2022-10-19T00:25:35.227Z,101794.59
2022-10-19T00:28:02.111Z,101795.00
2022-10-19T00:30:28.858Z,101799.63
2022-10-19T00:32:55.584Z,101802.16
2022-10-19T00:35:22.327Z,101802.84
2022-10-19T00:37:49.210Z,101806.72
2022-10-19T00:40:15.911Z,101808.38
2022-10-19T00:42:42.782Z,101804.03
2022-10-19T00:45:17.901Z,101812.41
2022-10-19T00:47:45.292Z,101810.56
2022-10-19T00:50:13.962Z,101804.53
2022-10-19T00:52:40.893Z,101810.59
2022-10-19T00:55:08.460Z,101812.09
2022-10-19T00:57:35.689Z,101804.72
2022-10-19T01:00:05.840Z,101800.34
2022-10-19T01:02:32.907Z,101804.22
2022-10-19T01:04:59.840Z,101797.69
2022-10-19T01:07:27.785Z,101795.50
2022-10-19T01:09:54.925Z,101793.31
2022-10-19T01:12:24.512Z,101794.00
2022-10-19T01:15:11.622Z,101798.53
2022-10-19T01:18:10.965Z,101782.28
2022-10-19T01:20:55.988Z,101797.88
2022-10-19T01:23:56.245Z,101781.16
2022-10-19T01:26:22.988Z,101779.97
2022-10-19T01:29:28.644Z,101769.06
2022-10-19T01:32:20.164Z,101768.53
2022-10-19T01:34:49.955Z,101763.84
2022-10-19T01:37:55.747Z,101767.81
2022-10-19T01:40:31.833Z,101765.53
2022-10-19T01:43:03.292Z,101762.72
2022-10-19T01:45:48.862Z,101764.69
2022-10-19T01:48:19.352Z,101767.22
2022-10-19T01:50:51.064Z,101767.91
2022-10-19T01:53:19.019Z,101768.78
2022-10-19T01:55:49.445Z,101760.22
2022-10-19T01:58:19.296Z,101766.50
2022-10-19T02:00:47.306Z,101772.31
2022-10-19T02:03:15.500Z,101769.91
2022-10-19T02:05:43.322Z,101774.59
2022-10-19T02:08:18.539Z,101770.56
2022-10-19T02:10:45.841Z,101777.94
2022-10-19T02:13:14.271Z,101768.34
2022-10-19T02:15:45.073Z,101770.78
2022-10-19T02:18:14.275Z,101752.91
2022-10-19T02:20:40.991Z,101759.47
2022-10-19T02:23:08.430Z,101767.13
2022-10-19T02:25:35.237Z,101759.72
2022-10-19T02:28:03.035Z,101752.84
2022-10-19T02:30:29.799Z,101746.50
2022-10-19T02:32:56.962Z,101745.63
2022-10-19T02:35:23.683Z,101744.00
2022-10-19T02:37:50.519Z,101744.81
2022-10-19T02:40:17.304Z,101733.69
2022-10-19T02:42:49.091Z,101732.88
2022-10-19T02:45:24.227Z,101733.53
2022-10-19T02:47:55.149Z,101734.63
2022-10-19T02:50:22.756Z,101721.78
2022-10-19T02:52:49.599Z,101726.84
2022-10-19T02:55:16.397Z,101725.28
2022-10-19T02:57:43.123Z,101718.94
2022-10-19T03:00:10.645Z,101719.56
2022-10-19T03:02:37.523Z,101716.97
2022-10-19T03:05:05.313Z,101702.75
2022-10-19T03:07:32.458Z,101709.63
2022-10-19T03:09:59.550Z,101706.75
2022-10-19T03:12:26.218Z,101702.31
2022-10-19T03:14:53.210Z,101699.91
2022-10-19T03:17:20.121Z,101701.56
2022-10-19T03:19:47.022Z,101693.50
2022-10-19T03:22:15.025Z,101685.13
2022-10-19T03:24:41.773Z,101680.88
2022-10-19T03:27:08.502Z,101684.94
2022-10-19T03:29:35.820Z,101679.69
2022-10-19T03:32:02.540Z,101683.44
2022-10-19T03:34:29.272Z,101686.13
2022-10-19T03:36:56.829Z,101687.88
2022-10-19T03:39:23.618Z,101690.47
2022-10-19T03:41:50.407Z,101695.28
2022-10-19T03:44:17.214Z,101692.88
2022-10-19T03:46:43.965Z,101687.69
2022-10-19T03:49:11.602Z,101688.53
2022-10-19T03:51:38.336Z,101684.47
2022-10-19T03:54:07.651Z,101692.41
2022-10-19T03:56:35.746Z,101693.00
2022-10-19T03:59:04.776Z,101695.56
2022-10-19T04:01:37.488Z,101689.03
2022-10-19T04:04:07.045Z,101679.34
2022-10-19T04:06:36.575Z,101686.69
2022-10-19T04:09:04.383Z,101682.88
2022-10-19T04:11:32.568Z,101690.06
2022-10-19T04:14:00.055Z,101680.38
2022-10-19T04:16:28.560Z,101696.22
2022-10-19T04:18:55.490Z,101695.56
2022-10-19T04:21:26.603Z,101702.22
2022-10-19T04:23:54.112Z,101692.81
2022-10-19T04:26:21.208Z,101691.75
2022-10-19T04:28:48.152Z,101682.13
2022-10-19T04:31:15.166Z,101691.09
2022-10-19T04:33:42.346Z,101689.75
2022-10-19T04:36:10.733Z,101686.75
2022-10-19T04:38:38.096Z,101684.06
2022-10-19T04:41:08.252Z,101675.22
2022-10-19T04:43:35.099Z,101676.22
2022-10-19T04:46:06.666Z,101674.88
2022-10-19T04:48:35.043Z,101669.09
2022-10-19T04:51:02.169Z,101670.25
2022-10-19T04:53:29.205Z,101675.44
2022-10-19T04:55:56.143Z,101672.28
2022-10-19T04:58:22.963Z,101684.84
2022-10-19T05:00:49.775Z,101668.03
2022-10-19T05:03:17.038Z,101677.78
2022-10-19T05:05:43.926Z,101669.13
2022-10-19T05:08:12.043Z,101666.31
2022-10-19T05:13:20.025Z,101654.25
2022-10-19T05:16:00.672Z,101652.81
2022-10-19T05:18:28.443Z,101656.31
2022-10-19T05:21:09.663Z,101642.78
2022-10-19T05:23:36.590Z,101649.66
2022-10-19T05:26:10.073Z,101653.81
2022-10-19T05:28:38.105Z,101642.66
2022-10-19T05:31:19.001Z,101638.47
2022-10-19T05:33:46.545Z,101649.13
2022-10-19T05:36:25.521Z,101644.44
2022-10-19T05:38:54.063Z,101652.09
2022-10-19T05:41:21.529Z,101642.28
2022-10-19T05:43:52.767Z,101648.47
2022-10-19T05:46:20.105Z,101640.94
2022-10-19T05:48:47.800Z,101642.56
2022-10-19T05:51:18.144Z,101630.41
2022-10-19T05:53:46.323Z,101634.41
2022-10-19T05:56:16.475Z,101631.00
2022-10-19T05:58:44.121Z,101632.16
2022-10-19T06:01:12.124Z,101623.44
2022-10-19T06:03:39.007Z,101619.75
2022-10-19T06:06:08.127Z,101618.03
2022-10-19T06:08:35.561Z,101621.38
2022-10-19T06:11:06.064Z,101619.97
2022-10-19T06:13:32.915Z,101622.66
2022-10-19T06:15:59.636Z,101618.97
2022-10-19T06:18:26.458Z,101615.41
2022-10-19T06:20:53.222Z,101622.78
2022-10-19T06:23:19.985Z,101616.06
2022-10-19T06:25:46.857Z,101611.53
2022-10-19T06:28:13.930Z,101612.84
2022-10-19T06:30:41.369Z,101607.28
2022-10-19T06:33:08.294Z,101617.19
2022-10-19T06:35:35.395Z,101618.81
2022-10-19T06:38:02.183Z,101617.56
2022-10-19T06:40:29.033Z,101621.25
2022-10-19T06:42:56.549Z,101619.28
2022-10-19T06:45:23.321Z,101624.09
2022-10-19T06:47:50.178Z,101630.94
2022-10-19T06:50:17.103Z,101626.97
2022-10-19T06:52:44.199Z,101628.03
2022-10-19T06:55:10.871Z,101620.53
2022-10-19T06:57:37.848Z,101624.03
2022-10-19T07:00:06.020Z,101628.34
2022-10-19T07:02:33.416Z,101627.78
2022-10-19T07:05:04.441Z,101629.09
2022-10-19T07:07:34.726Z,101635.19
2022-10-19T07:10:01.918Z,101634.31
2022-10-19T07:12:29.278Z,101635.13
2022-10-19T07:14:56.246Z,101625.13
2022-10-19T07:17:22.979Z,101630.56
2022-10-19T07:19:49.698Z,101626.84
2022-10-19T07:22:21.155Z,101624.72
2022-10-19T07:24:52.297Z,101618.72
2022-10-19T07:27:19.155Z,101624.75
2022-10-19T07:29:45.984Z,101618.63
2022-10-19T07:32:12.771Z,101608.50
2022-10-19T07:34:39.554Z,101608.22
2022-10-19T07:37:06.442Z,101609.09
2022-10-19T07:39:33.265Z,101612.44
2022-10-19T07:42:00.028Z,101622.09
2022-10-19T07:44:27.047Z,101615.75
2022-10-19T07:46:53.782Z,101626.28
2022-10-19T07:49:20.840Z,101623.41
2022-10-19T07:51:47.881Z,101627.28
2022-10-19T07:54:14.669Z,101622.25
2022-10-19T07:56:41.463Z,101615.78
2022-10-19T07:59:08.287Z,101627.19
2022-10-19T08:01:41.135Z,101628.19
2022-10-19T08:06:54.829Z,101629.47
2022-10-19T08:09:51.411Z,101626.63
2022-10-19T08:12:12.485Z,101625.69
2022-10-19T08:14:40.922Z,101632.81
2022-10-19T08:17:08.970Z,101639.03
2022-10-19T08:19:35.746Z,101632.75
2022-10-19T08:22:02.445Z,101625.38
2022-10-19T08:24:29.708Z,101625.91
2022-10-19T08:26:57.291Z,101626.81
2022-10-19T08:29:25.592Z,101626.84
2022-10-19T08:31:54.667Z,101612.72
2022-10-19T08:34:21.555Z,101612.72
2022-10-19T08:36:49.241Z,101616.09
2022-10-19T08:39:17.851Z,101605.59
2022-10-19T08:41:53.271Z,101604.88
2022-10-19T08:44:45.438Z,101604.13
2022-10-19T08:47:44.483Z,101612.59
2022-10-19T08:50:24.640Z,101605.78
2022-10-19T08:53:01.412Z,101606.63
2022-10-19T08:55:37.888Z,101611.91
2022-10-19T08:58:40.974Z,101601.66
2022-10-19T09:01:33.881Z,101603.56
2022-10-19T09:04:09.448Z,101606.00
2022-10-19T09:06:50.008Z,101599.16
2022-10-19T09:09:19.233Z,101595.16
2022-10-19T09:11:50.945Z,101598.13
2022-10-19T09:14:39.134Z,101591.94
2022-10-19T09:17:12.175Z,101586.66
2022-10-19T09:19:38.957Z,101592.97
2022-10-19T09:22:17.815Z,101592.84
2022-10-19T09:24:51.919Z,101593.00
2022-10-19T09:27:27.102Z,101594.88
2022-10-19T09:29:57.920Z,101590.53
2022-10-19T09:32:37.827Z,101581.53
2022-10-19T09:35:13.987Z,101585.72
2022-10-19T09:37:44.740Z,101576.28
2022-10-19T09:40:28.642Z,101570.66
2022-10-19T09:42:59.434Z,101556.66
2022-10-19T09:45:34.009Z,101565.69
2022-10-19T09:48:07.215Z,101568.84
2022-10-19T09:50:43.169Z,101561.41
2022-10-19T09:53:17.950Z,101570.44
2022-10-19T09:58:20.289Z,101564.19
2022-10-19T10:00:52.167Z,101556.84
2022-10-19T10:03:39.550Z,101562.84
2022-10-19T10:06:10.634Z,101552.94
2022-10-19T10:08:38.119Z,101552.31
2022-10-19T10:11:10.927Z,101543.47
2022-10-19T10:13:40.367Z,101549.41
2022-10-19T10:16:09.294Z,101542.97
2022-10-19T10:18:39.575Z,101537.22
2022-10-19T10:21:15.254Z,101547.84
2022-10-19T10:23:42.088Z,101549.16
2022-10-19T10:26:18.984Z,101530.13
2022-10-19T10:28:50.341Z,101533.06
2022-10-19T10:31:23.413Z,101536.47
2022-10-19T10:34:22.942Z,101534.31
2022-10-19T10:36:55.400Z,101534.59
2022-10-19T10:39:24.986Z,101534.72
2022-10-19T10:41:52.080Z,101531.25
2022-10-19T10:44:24.485Z,101541.13
2022-10-19T10:46:56.575Z,101545.47
2022-10-19T10:49:34.274Z,101542.53
2022-10-19T10:52:05.146Z,101538.31
2022-10-19T10:54:32.819Z,101545.97
2022-10-19T10:57:13.169Z,101551.00
2022-10-19T11:00:03.885Z,101546.44
2022-10-19T11:02:49.158Z,101533.84
2022-10-19T11:05:26.742Z,101531.69
2022-10-19T11:08:16.114Z,101533.38
2022-10-19T11:10:48.915Z,101534.69
2022-10-19T11:13:44.620Z,101530.97
2022-10-19T11:16:13.604Z,101521.69
2022-10-19T11:18:44.628Z,101524.78
2022-10-19T11:21:12.340Z,101531.31
2022-10-19T11:23:51.965Z,101530.88
2022-10-19T11:26:55.822Z,101520.38
2022-10-19T11:29:45.501Z,101520.03
2022-10-19T11:32:23.743Z,101516.81
2022-10-19T11:35:13.378Z,101518.16
2022-10-19T11:38:14.212Z,101508.00
2022-10-19T11:41:16.950Z,101504.00
2022-10-19T11:44:12.157Z,101501.78
2022-10-19T11:46:45.708Z,101496.53
2022-10-19T11:49:44.659Z,101498.19
2022-10-19T11:52:32.923Z,101495.91
2022-10-19T11:55:15.913Z,101485.44
2022-10-19T11:57:42.587Z,101477.28
2022-10-19T12:00:27.282Z,101477.81
2022-10-19T12:03:10.348Z,101473.38
2022-10-19T12:05:49.151Z,101475.66
2022-10-19T12:08:36.994Z,101473.53
2022-10-19T12:11:12.759Z,101470.94
2022-10-19T12:13:46.852Z,101475.56
2022-10-19T12:16:14.365Z,101468.25
2022-10-19T12:19:02.078Z,101469.84
2022-10-19T12:21:33.286Z,101466.75
2022-10-19T12:24:02.519Z,101459.91
2022-10-19T12:26:31.747Z,101460.03
2022-10-19T12:29:01.091Z,101446.63
2022-10-19T12:31:28.360Z,101446.63
2022-10-19T12:34:45.311Z,101445.88
2022-10-19T12:37:50.777Z,101433.19
2022-10-19T12:40:28.612Z,101432.19
2022-10-19T12:43:12.425Z,101432.84
2022-10-19T12:46:07.268Z,101423.78
2022-10-19T12:48:36.405Z,101425.22
2022-10-19T12:51:06.138Z,101433.47
2022-10-19T12:53:41.560Z,101423.88
2022-10-19T12:56:11.429Z,101422.22
2022-10-19T12:58:46.764Z,101418.19
2022-10-19T13:01:44.266Z,101420.03
2022-10-19T13:04:18.255Z,101404.47
2022-10-19T13:06:51.146Z,101393.28
2022-10-19T13:09:28.283Z,101393.69
2022-10-19T13:12:16.303Z,101396.19
2022-10-19T13:15:25.609Z,101377.81
2022-10-19T13:17:52.798Z,101384.00
2022-10-19T13:20:19.784Z,101375.94
2022-10-19T13:22:46.596Z,101369.22
2022-10-19T13:25:16.440Z,101368.22
2022-10-19T13:27:44.665Z,101356.09
2022-10-19T13:30:36.479Z,101356.72
2022-10-19T13:33:35.046Z,101360.84
2022-10-19T13:36:02.703Z,101363.09
2022-10-19T13:38:49.476Z,101353.19
2022-10-19T13:41:22.533Z,101352.78
2022-10-19T13:43:52.260Z,101347.84
2022-10-19T13:46:22.693Z,101343.91
2022-10-19T13:49:01.829Z,101335.28
2022-10-19T13:51:59.375Z,101335.03
2022-10-19T13:54:52.109Z,101330.66
2022-10-19T13:57:25.332Z,101320.25
2022-10-19T13:59:55.171Z,101318.81
2022-10-19T14:02:47.097Z,101315.72
2022-10-19T14:05:25.890Z,101309.97
2022-10-19T14:08:15.677Z,101317.66
2022-10-19T14:11:00.030Z,101313.03
2022-10-19T14:13:28.301Z,101304.97
2022-10-19T14:15:56.894Z,101310.16
2022-10-19T14:18:32.264Z,101310.16
2022-10-19T14:21:07.689Z,101301.03
2022-10-19T14:23:36.839Z,101294.88
2022-10-19T14:26:07.978Z,101292.03
2022-10-19T14:28:35.054Z,101290.53
2022-10-19T14:31:10.600Z,101287.44
2022-10-19T14:33:41.366Z,101287.44
2022-10-19T14:36:15.110Z,101284.75
2022-10-19T14:38:46.623Z,101278.00
2022-10-19T14:41:29.165Z,101275.28
2022-10-19T14:43:57.629Z,101262.91
2022-10-19T14:46:31.046Z,101263.94
2022-10-19T14:49:05.552Z,101260.78
2022-10-19T14:51:52.515Z,101255.91
2022-10-19T14:54:31.254Z,101257.13
2022-10-19T14:57:08.061Z,101262.50
2022-10-19T14:59:53.550Z,101249.91
2022-10-19T15:02:27.076Z,101247.69
2022-10-19T15:04:55.486Z,101253.25
2022-10-19T15:07:38.249Z,101241.78
2022-10-19T15:10:07.750Z,101240.97
2022-10-19T15:12:40.231Z,101233.09
2022-10-19T15:15:15.238Z,101233.34
2022-10-19T15:17:51.710Z,101229.38
2022-10-19T15:20:29.534Z,101223.72
2022-10-19T15:22:58.112Z,101223.72
2022-10-19T15:25:35.406Z,101216.63
2022-10-19T15:28:30.325Z,101208.44
2022-10-19T15:31:02.285Z,101209.47
2022-10-19T15:33:29.341Z,101199.56
2022-10-19T15:36:08.296Z,101196.28
2022-10-19T15:38:35.760Z,101189.47
2022-10-19T15:41:04.213Z,101183.06
2022-10-19T15:43:31.078Z,101181.59
2022-10-19T15:46:03.763Z,101184.28
2022-10-19T15:48:51.050Z,101177.00
2022-10-19T15:51:23.413Z,101176.78
2022-10-19T15:53:53.162Z,101189.59
2022-10-19T15:56:21.125Z,101175.09
2022-10-19T15:58:52.595Z,101181.44
2022-10-19T16:01:22.649Z,101170.88
2022-10-19T16:03:49.935Z,101173.94
2022-10-19T16:06:18.029Z,101174.03
2022-10-19T16:08:47.890Z,101170.69
2022-10-19T16:11:19.620Z,101154.53
2022-10-19T16:13:46.444Z,101149.00
2022-10-19T16:16:27.104Z,101143.16
2022-10-19T16:18:54.558Z,101154.50
2022-10-19T16:21:50.004Z,101146.25
2022-10-19T16:24:17.316Z,101136.34
2022-10-19T16:26:44.011Z,101126.25
2022-10-19T16:29:10.758Z,101130.78
2022-10-19T16:31:38.074Z,101121.47
2022-10-19T16:34:04.820Z,101132.78
2022-10-19T16:36:31.504Z,101124.16
2022-10-19T16:39:00.423Z,101113.03
2022-10-19T16:41:27.171Z,101114.13
2022-10-19T16:43:55.296Z,101116.13
2022-10-19T16:46:23.198Z,101108.09
2022-10-19T16:48:50.278Z,101114.09
2022-10-19T16:51:25.717Z,101113.25
2022-10-19T16:53:57.052Z,101119.97
2022-10-19T16:56:25.377Z,101120.59
2022-10-19T16:59:03.837Z,101115.84
2022-10-19T17:01:31.777Z,101101.00
2022-10-19T17:03:58.595Z,101111.09
2022-10-19T17:06:26.886Z,101112.03
2022-10-19T17:11:42.798Z,101097.78
2022-10-19T17:14:12.297Z,101084.94
2022-10-19T17:16:39.693Z,101092.31
2022-10-19T17:19:07.373Z,101081.81
2022-10-19T17:21:38.333Z,101076.94
2022-10-19T17:24:07.559Z,101076.72
2022-10-19T17:26:36.692Z,101073.84
2022-10-19T17:29:04.740Z,101068.16
2022-10-19T17:31:31.919Z,101058.22
2022-10-19T17:34:00.710Z,101055.50
2022-10-19T17:36:32.886Z,101071.75
2022-10-19T17:39:05.540Z,101065.03
2022-10-19T17:41:32.355Z,101063.56
2022-10-19T17:43:59.129Z,101059.44
2022-10-19T17:46:29.390Z,101064.81
2022-10-19T17:48:56.911Z,101059.72
2022-10-19T17:51:29.426Z,101061.56
2022-10-19T17:53:58.633Z,101066.25
2022-10-19T17:56:25.883Z,101066.31
2022-10-19T17:58:53.063Z,101061.38
2022-10-19T18:01:21.975Z,101057.44
2022-10-19T18:03:49.662Z,101053.88
2022-10-19T18:06:28.027Z,101047.78
2022-10-19T18:08:56.364Z,101048.59
2022-10-19T18:11:25.579Z,101041.56
2022-10-19T18:13:54.425Z,101040.28
2022-10-19T18:16:24.250Z,101040.72
2022-10-19T18:18:52.964Z,101035.16
2022-10-19T18:21:22.094Z,101027.25
2022-10-19T18:23:48.987Z,101019.72
2022-10-19T18:26:19.730Z,101010.88
2022-10-19T18:28:46.815Z,101016.88
2022-10-19T18:31:16.118Z,101018.22
2022-10-19T18:33:43.087Z,101011.72
2022-10-19T18:36:10.830Z,101007.66
2022-10-19T18:38:38.021Z,101012.72
2022-10-19T18:41:07.440Z,101009.84
2022-10-19T18:43:34.253Z,101026.22
2022-10-19T18:46:01.339Z,101013.84
2022-10-19T18:48:29.449Z,101007.84
2022-10-19T18:50:57.172Z,101006.00
2022-10-19T18:53:24.571Z,101001.66
2022-10-19T18:56:01.837Z,101002.97
2022-10-19T18:58:31.015Z,101008.75
2022-10-19T19:01:19.499Z,101002.50
2022-10-19T19:03:49.717Z,100999.03
2022-10-19T19:06:24.845Z,100989.94
2022-10-19T19:08:54.363Z,100992.19
2022-10-19T19:11:23.914Z,100994.53
2022-10-19T19:13:52.052Z,100988.34
2022-10-19T19:16:19.353Z,100977.34
2022-10-19T19:18:46.404Z,100987.84
2022-10-19T19:21:21.473Z,100980.91
2022-10-19T19:23:48.679Z,100984.78
2022-10-19T19:26:15.959Z,100973.00
2022-10-19T19:28:47.623Z,100969.00
2022-10-19T19:31:18.821Z,100974.31
2022-10-19T19:33:47.050Z,100965.59
2022-10-19T19:36:15.843Z,100951.00
2022-10-19T19:38:45.341Z,100956.25
2022-10-19T19:41:14.179Z,100960.38
2022-10-19T19:43:42.575Z,100948.31
2022-10-19T19:46:15.457Z,100939.66
2022-10-19T19:48:43.860Z,100940.63
2022-10-19T19:51:15.802Z,100933.38
2022-10-19T19:53:43.148Z,100938.78
2022-10-19T19:56:11.416Z,100929.44
2022-10-19T19:58:39.390Z,100925.31
2022-10-19T20:01:12.519Z,100923.25
2022-10-19T20:03:40.913Z,100920.78
2022-10-19T20:06:08.008Z,100913.81
2022-10-19T20:08:36.364Z,100917.53
2022-10-19T20:11:04.777Z,100911.56
2022-10-19T20:13:31.757Z,100915.88
2022-10-19T20:16:00.748Z,100906.16
2022-10-19T20:18:27.516Z,100900.38
2022-10-19T20:20:54.475Z,100891.72
2022-10-19T20:23:21.259Z,100888.75
2022-10-19T20:25:48.025Z,100876.19
2022-10-19T20:28:14.819Z,100880.16
2022-10-19T20:30:44.497Z,100879.13
2022-10-19T20:33:11.288Z,100870.81
2022-10-19T20:35:37.968Z,100871.97
2022-10-19T20:38:04.716Z,100878.34
2022-10-19T20:40:31.481Z,100874.28
2022-10-19T20:42:58.131Z,100871.13
2022-10-19T20:45:24.834Z,100871.38
2022-10-19T20:47:51.544Z,100860.19
2022-10-19T20:50:20.674Z,100854.47
2022-10-19T20:52:48.748Z,100856.09
2022-10-19T20:55:15.576Z,100860.63
2022-10-19T20:57:42.367Z,100854.00
2022-10-19T21:00:09.764Z,100851.34
2022-10-19T21:02:36.949Z,100855.47
2022-10-19T21:05:04.215Z,100855.09
2022-10-19T21:07:31.002Z,100856.13
2022-10-19T21:09:57.720Z,100850.50
2022-10-19T21:12:24.466Z,100841.03
2022-10-19T21:14:51.181Z,100833.84
2022-10-19T21:17:17.916Z,100829.69
2022-10-19T21:19:44.632Z,100824.94
2022-10-19T21:22:11.639Z,100814.03
2022-10-19T21:24:39.491Z,100809.06
2022-10-19T21:27:09.086Z,100814.00
2022-10-19T21:30:01.228Z,100812.56
2022-10-19T21:32:28.055Z,100808.88
2022-10-19T21:34:54.824Z,100812.97
2022-10-19T21:37:21.727Z,100802.91
2022-10-19T21:39:48.469Z,100794.84
2022-10-19T21:42:15.282Z,100793.63
2022-10-19T21:44:42.056Z,100790.09
2022-10-19T21:47:08.830Z,100790.13
2022-10-19T21:49:35.522Z,100774.22
2022-10-19T21:52:02.433Z,100776.06
2022-10-19T21:54:29.415Z,100786.16
2022-10-19T21:56:58.379Z,100785.16
2022-10-19T21:59:25.100Z,100782.25
2022-10-19T22:01:51.962Z,100788.44
2022-10-19T22:04:18.951Z,100784.09
2022-10-19T22:06:46.187Z,100788.47
2022-10-19T22:09:15.875Z,100776.50
2022-10-19T22:11:43.078Z,100777.31
2022-10-19T22:14:10.630Z,100768.44
2022-10-19T22:16:37.499Z,100769.66
2022-10-19T22:19:05.150Z,100751.13
2022-10-19T22:21:33.318Z,100748.63
2022-10-19T22:24:11.576Z,100741.41
2022-10-19T22:26:40.939Z,100741.03
2022-10-19T22:29:08.021Z,100745.16
2022-10-19T22:31:59.958Z,100733.38
2022-10-19T22:34:26.789Z,100733.38
2022-10-19T22:36:53.457Z,100732.97
2022-10-19T22:39:20.235Z,100729.47
2022-10-19T22:41:46.888Z,100734.00
2022-10-19T22:44:13.601Z,100739.75
2022-10-19T22:46:40.299Z,100726.59
2022-10-19T22:49:07.126Z,100724.50
2022-10-19T22:51:33.826Z,100719.34
2022-10-19T22:54:00.702Z,100726.59
2022-10-19T22:56:27.447Z,100724.91
2022-10-19T22:58:58.308Z,100717.50
2022-10-19T23:01:25.098Z,100718.31
2022-10-19T23:03:51.838Z,100717.28
2022-10-19T23:06:18.608Z,100721.59
2022-10-19T23:08:45.479Z,100712.75
2022-10-19T23:11:13.024Z,100700.16
2022-10-19T23:13:39.824Z,100699.94
2022-10-19T23:16:07.313Z,100691.09
2022-10-19T23:18:36.687Z,100687.59
2022-10-19T23:21:08.742Z,100674.19
2022-10-19T23:23:36.945Z,100673.34
2022-10-19T23:26:05.082Z,100667.34
2022-10-19T23:28:33.787Z,100665.72
2022-10-19T23:31:10.878Z,100661.59
2022-10-19T23:33:38.038Z,100661.41
2022-10-19T23:36:09.142Z,100652.72
2022-10-19T23:38:36.432Z,100650.88
2022-10-19T23:41:03.237Z,100652.72
2022-10-19T23:43:30.212Z,100658.72
2022-10-19T23:45:56.915Z,100646.53
2022-10-19T23:48:23.846Z,100648.81
2022-10-19T23:51:02.052Z,100643.63
2022-10-19T23:53:30.288Z,100637.25
2022-10-19T23:56:06.816Z,100646.13
2022-10-19T23:58:33.907Z,100641.97
